Aérodrome :
LOGIN :

S'inscrire | Disclaimer

   EN    FR    IT 

 










Légende :    VFR   VFR Marginal   IFR   IFR Intensif   IFR Très Intensif
Visi : 
Plafond : 
>= 8 km
>= 3000ft
5 à 8 km
1000 à 3000 ft
1500m à 5 km
500 à 1000 ft
800 à 1500m
200 à 500 ft
< 800m
< 200 ft
Symboles :   Orages  Brouillard  Fortes neiges  Fortes précipitations  Vent > 20 kt
SIGMETs :   Divers  Orages  Givrage  Turbulence  Onde Orograph.  Cendres Volcan.






- Altitude de l'aérodrome : 1682 ft
- Code IATA : VIT


LEVT - Vitoria Gasteiz

DERNIER METAR :
  • 132000Z 02009KT 350V050 9999 OVC025 17/13 Q1020

METARs EXPIRÉS :
  • 131930Z 02007KT 350V060 9999 OVC026 17/13 Q1020
  • 131900Z 02009KT 350V050 9999 BKN025 17/13 Q1019
  • 131830Z 02008KT 350V060 9999 BKN026 18/13 Q1019
  • 131800Z 36010KT 330V030 9999 SCT030 18/13 Q1019
  • 131730Z 01011KT 340V050 9999 FEW030 19/14 Q1018

TAF TAF LEVT
Valide du 13 à 18h jusqu'au 14 à 18h UTC


131700Z 1318/1418 VRB04KT 9999 SCT030 TX26/1414Z TN13/1405Z
TEMPO 1318/1320 02010KT
PROB40
TEMPO 1400/1407 3000 BR BKN010
PROB30
TEMPO 1400/1406 0800 BCFG BKN003
TEMPO 1412/1418 02010KT



MET'MAP, la Météo Aéronautique d'un coup d'oeil ! - Copyright ORBIFLY Décembre 2007 - Disclaimer

ORBIFLY MET'MAP TEAM :

Programmation & Développement : Alexandra Zaïnal
Sur une idée originale de : Baudouin d'Aumeries
Assistance à la programmation : Marc-Olivier Méhu
Soutien technique & logistique : Manuel Goepfert

Contact : metmap@orbifly.com




SOURCES & CREDITS :

   NOAA